Time;durP1;ratioP1;P1;durP2;ratioP2;P2;SDS_P1;SDS_P2;PMS_P1;PMS_P2;Temp;Humidity;BMP_temperature;BMP_pressure;BME280_temperature;BME280_humidity;BME280_pressure;Samples;Min_cycle;Max_cycle;Signal;HPM_P1;HPM_P2
2022/10/25 00:01:45;;;;;;;29.35;13.40;;;11.50;99.90;;;;;;5038014;28;20048;-72
2022/10/25 00:04:11;;;;;;;29.35;14.10;;;11.50;99.90;;;;;;5055947;28;20045;-72
2022/10/25 00:06:37;;;;;;;25.15;13.02;;;11.50;99.90;;;;;;5037911;28;20424;-73
2022/10/25 00:09:03;;;;;;;26.98;13.63;;;11.50;99.90;;;;;;5055957;28;20133;-73
2022/10/25 00:11:30;;;;;;;34.20;14.40;;;11.40;99.90;;;;;;5042926;28;20047;-72
2022/10/25 00:13:59;;;;;;;36.70;15.88;;;11.50;99.90;;;;;;5074611;28;20048;-73
2022/10/25 00:16:28;;;;;;;30.58;15.15;;;11.40;99.90;;;;;;5075145;28;20044;-72
2022/10/25 00:18:54;;;;;;;28.48;15.60;;;11.40;99.90;;;;;;5075485;28;20052;-72
2022/10/25 00:21:20;;;;;;;35.53;17.05;;;11.40;99.90;;;;;;5057486;28;20045;-72
2022/10/25 00:23:46;;;;;;;30.60;15.40;;;11.40;99.90;;;;;;5075034;28;20064;-72
2022/10/25 00:26:12;;;;;;;29.40;16.67;;;11.40;99.90;;;;;;5057711;28;20041;-74
2022/10/25 00:28:39;;;;;;;37.90;17.83;;;11.40;99.90;;;;;;5061641;28;20468;-73
2022/10/25 00:31:10;;;;;;;30.55;17.13;;;11.60;99.90;;;;;;5054517;28;20056;-72
2022/10/25 00:33:38;;;;;;;34.92;17.15;;;11.50;99.90;;;;;;5055062;28;20063;-73
2022/10/25 00:36:09;;;;;;;45.22;20.23;;;11.60;99.90;;;;;;5054991;28;20045;-73
2022/10/25 00:38:35;;;;;;;35.35;19.73;;;11.50;99.90;;;;;;5054713;28;20045;-73
2022/10/25 00:41:02;;;;;;;36.95;19.40;;;11.50;99.90;;;;;;5054802;28;20064;-72
2022/10/25 00:43:35;;;;;;;31.92;17.63;;;11.50;99.90;;;;;;5037672;28;20076;-72
2022/10/25 00:46:04;;;;;;;43.50;21.13;;;11.50;99.90;;;;;;5047572;28;20041;-72
2022/10/25 00:48:30;;;;;;;50.35;22.48;;;11.60;99.90;;;;;;5054886;28;20049;-73
2022/10/25 00:50:56;;;;;;;42.47;21.38;;;11.60;99.90;;;;;;5054672;28;20049;-72
2022/10/25 00:53:29;;;;;;;37.17;20.10;;;11.90;99.90;;;;;;5054536;28;20063;-73
2022/10/25 00:56:02;;;;;;;39.90;20.60;;;11.80;99.90;;;;;;5054871;28;20051;-73
2022/10/25 00:58:30;;;;;;;45.90;23.97;;;11.90;99.90;;;;;;5055877;28;20049;-73
2022/10/25 01:00:56;;;;;;;42.15;23.65;;;11.90;99.90;;;;;;5074769;28;20044;-73
2022/10/25 01:03:23;;;;;;;41.63;22.98;;;12.10;99.90;;;;;;5074209;28;20055;-72
2022/10/25 01:05:49;;;;;;;36.13;21.95;;;12.10;99.90;;;;;;5075083;28;20080;-74
2022/10/25 01:08:16;;;;;;;39.15;23.17;;;12.10;99.90;;;;;;5057263;28;20055;-72
2022/10/25 01:10:42;;;;;;;49.72;21.02;;;12.10;99.90;;;;;;5057199;28;20091;-72
2022/10/25 01:13:08;;;;;;;38.45;21.45;;;12.20;99.90;;;;;;5074699;28;20084;-73
2022/10/25 01:16:06;;;;;;;39.90;21.42;;;12.30;99.90;;;;;;5066449;28;20124;-73
2022/10/25 01:18:42;;;;;;;36.17;19.67;;;12.30;99.90;;;;;;5021087;28;20056;-72
2022/10/25 01:21:30;;;;;;;32.42;20.30;;;12.20;99.90;;;;;;5054522;28;20056;-72
2022/10/25 01:24:26;;;;;;;36.28;19.85;;;12.30;99.90;;;;;;5054728;28;20130;-72
2022/10/25 01:27:05;;;;;;;32.95;18.95;;;12.30;99.90;;;;;;5054429;28;20114;-72
2022/10/25 01:29:39;;;;;;;32.05;18.95;;;12.30;99.90;;;;;;5054512;28;20412;-72
2022/10/25 01:32:19;;;;;;;29.70;17.83;;;12.30;99.90;;;;;;5055065;28;20053;-73
2022/10/25 01:35:10;;;;;;;42.65;20.08;;;12.30;99.90;;;;;;5071819;28;20041;-72
2022/10/25 01:37:49;;;;;;;28.73;18.23;;;12.40;99.90;;;;;;5074401;28;20059;-73
2022/10/25 01:40:47;;;;;;;36.20;18.10;;;12.30;99.90;;;;;;5074096;28;20104;-71
2022/10/25 01:43:27;;;;;;;26.60;17.85;;;12.40;99.90;;;;;;5064112;28;20432;-72
2022/10/25 01:45:59;;;;;;;32.15;18.88;;;12.50;99.90;;;;;;5078000;28;20063;-73
2022/10/25 01:48:35;;;;;;;32.42;17.90;;;12.40;99.90;;;;;;5077683;28;20037;-71
2022/10/25 01:51:19;;;;;;;32.95;17.92;;;12.40;99.90;;;;;;5057909;28;20052;-72
2022/10/25 01:53:47;;;;;;;29.05;16.63;;;12.50;99.90;;;;;;5057626;28;20051;-72
2022/10/25 01:56:23;;;;;;;36.25;18.23;;;12.50;99.90;;;;;;5057703;28;20066;-71
2022/10/25 01:59:17;;;;;;;31.92;17.15;;;12.60;99.90;;;;;;5175127;22;20461;-73
2022/10/25 02:02:11;;;;;;;27.08;17.60;;;12.50;99.90;;;;;;5058822;28;20048;-72
2022/10/25 02:05:03;;;;;;;31.52;18.70;;;12.50;99.90;;;;;;5057344;28;20044;-72
2022/10/25 02:07:36;;;;;;;36.42;17.42;;;12.50;99.90;;;;;;5057385;28;20449;-70
2022/10/25 02:10:44;;;;;;;38.55;17.80;;;12.50;99.90;;;;;;5057508;28;20052;-70
2022/10/25 02:13:25;;;;;;;42.95;18.13;;;12.50;99.90;;;;;;5046166;28;20053;-71
2022/10/25 02:16:08;;;;;;;32.35;17.08;;;12.50;99.90;;;;;;5048914;28;20052;-70
2022/10/25 02:18:37;;;;;;;30.80;17.23;;;12.60;99.90;;;;;;5057010;28;20354;-71
2022/10/25 02:21:05;;;;;;;34.53;17.92;;;12.50;99.90;;;;;;5059675;28;20083;-70
2022/10/25 02:23:33;;;;;;;36.20;19.70;;;12.50;99.90;;;;;;5060126;28;20051;-71
2022/10/25 02:26:00;;;;;;;28.30;16.13;;;12.50;99.90;;;;;;5077161;28;20048;-71
2022/10/25 02:28:27;;;;;;;30.55;18.10;;;12.60;99.90;;;;;;5077293;28;20040;-72
2022/10/25 02:30:55;;;;;;;27.30;17.10;;;12.60;99.90;;;;;;5058995;28;20483;-71
2022/10/25 02:33:21;;;;;;;31.63;17.92;;;12.50;99.90;;;;;;5040648;28;20056;-71
2022/10/25 02:36:14;;;;;;;29.73;17.70;;;12.50;99.90;;;;;;5057111;28;20048;-72
2022/10/25 02:38:41;;;;;;;39.20;19.27;;;12.50;99.90;;;;;;5056706;28;20053;-71
2022/10/25 02:41:07;;;;;;;33.50;18.42;;;12.50;99.90;;;;;;5056894;28;20437;-70
2022/10/25 02:43:33;;;;;;;30.42;17.23;;;12.50;99.90;;;;;;5056896;28;20036;-71
2022/10/25 02:45:58;;;;;;;33.72;18.50;;;12.60;99.90;;;;;;5040369;28;20150;-71
2022/10/25 02:48:25;;;;;;;36.20;19.10;;;12.50;99.90;;;;;;5076634;28;20060;-72
2022/10/25 02:50:50;;;;;;;29.38;16.65;;;12.50;99.90;;;;;;5076547;28;20037;-72
2022/10/25 02:53:16;;;;;;;30.10;17.48;;;12.50;99.90;;;;;;5075608;28;20110;-71
2022/10/25 02:55:43;;;;;;;27.88;17.45;;;12.50;99.90;;;;;;5076723;28;20044;-71
2022/10/25 02:58:08;;;;;;;29.65;17.55;;;12.50;99.90;;;;;;5076533;28;20469;-71
2022/10/25 03:00:34;;;;;;;25.08;17.08;;;12.60;99.90;;;;;;5076635;28;20059;-72
2022/10/25 03:03:00;;;;;;;37.50;18.50;;;12.50;99.90;;;;;;5056530;28;20053;-70
2022/10/25 03:05:25;;;;;;;26.25;16.52;;;12.50;99.90;;;;;;5038915;28;20045;-71
2022/10/25 03:07:51;;;;;;;34.08;18.05;;;12.80;99.90;;;;;;5056426;28;20049;-71
2022/10/25 03:10:16;;;;;;;26.83;16.75;;;12.60;99.90;;;;;;5056920;28;20132;-71
2022/10/25 03:12:42;;;;;;;24.95;14.45;;;12.60;99.90;;;;;;5056769;28;20514;-71
2022/10/25 03:15:08;;;;;;;31.67;16.23;;;12.60;99.90;;;;;;5056017;28;20045;-70
2022/10/25 03:17:33;;;;;;;33.47;17.45;;;12.60;99.90;;;;;;5073614;28;20059;-71
2022/10/25 03:19:59;;;;;;;26.65;14.93;;;12.60;99.90;;;;;;5076225;28;20052;-70
2022/10/25 03:22:24;;;;;;;28.95;14.73;;;12.60;99.90;;;;;;5058295;28;20044;-71
2022/10/25 03:24:50;;;;;;;28.90;13.90;;;12.50;99.90;;;;;;5076067;28;20466;-72
2022/10/25 03:27:16;;;;;;;30.30;14.18;;;12.50;99.90;;;;;;5076062;28;20037;-72
2022/10/25 03:29:42;;;;;;;39.08;15.18;;;12.50;99.90;;;;;;5075793;28;20353;-71
2022/10/25 03:32:08;;;;;;;28.73;15.38;;;12.40;99.90;;;;;;5041256;28;20096;-71
2022/10/25 03:34:34;;;;;;;25.80;15.25;;;12.30;99.90;;;;;;5055402;28;20568;-70
2022/10/25 03:36:59;;;;;;;30.27;16.33;;;12.30;99.90;;;;;;5038032;28;20082;-73
2022/10/25 03:39:25;;;;;;;30.98;16.08;;;12.30;99.90;;;;;;5038175;28;20052;-72
2022/10/25 03:41:50;;;;;;;31.83;16.20;;;12.30;99.90;;;;;;5055807;28;20461;-71
2022/10/25 03:44:16;;;;;;;31.38;16.75;;;12.20;99.90;;;;;;5055939;28;20047;-71
2022/10/25 03:46:41;;;;;;;32.55;18.08;;;12.30;99.90;;;;;;5052804;28;20044;-71
2022/10/25 03:49:07;;;;;;;38.67;16.65;;;12.30;99.90;;;;;;5075377;28;20461;-72
2022/10/25 03:51:33;;;;;;;37.25;16.95;;;12.50;99.90;;;;;;5075656;28;20040;-71
2022/10/25 03:53:58;;;;;;;39.13;17.55;;;12.30;99.90;;;;;;5058049;28;20040;-72
2022/10/25 03:56:24;;;;;;;35.25;17.73;;;12.30;99.90;;;;;;5075288;28;20111;-72
2022/10/25 03:58:50;;;;;;;35.40;17.50;;;12.30;99.90;;;;;;5075348;28;20055;-71
2022/10/25 04:01:15;;;;;;;34.92;17.90;;;12.30;99.90;;;;;;5043441;28;20049;-70
2022/10/25 04:03:43;;;;;;;36.55;17.55;;;12.40;99.90;;;;;;5037999;28;20190;-73
2022/10/25 04:06:10;;;;;;;36.33;17.20;;;12.40;99.90;;;;;;5056709;28;20041;-71
2022/10/25 04:08:36;;;;;;;43.22;19.08;;;12.30;99.90;;;;;;5056936;28;20071;-72
2022/10/25 04:11:02;;;;;;;36.78;17.70;;;12.30;99.90;;;;;;5037488;28;20467;-72
2022/10/25 04:13:28;;;;;;;42.53;17.15;;;12.30;99.90;;;;;;5037267;28;20040;-72
2022/10/25 04:15:53;;;;;;;27.85;15.73;;;12.20;99.90;;;;;;5074753;28;20037;-72
2022/10/25 04:18:19;;;;;;;36.42;16.13;;;12.20;99.90;;;;;;5075219;28;20041;-71
2022/10/25 04:20:44;;;;;;;29.80;14.65;;;12.20;99.90;;;;;;5058203;28;20055;-73
2022/10/25 04:23:10;;;;;;;29.88;13.85;;;12.30;99.90;;;;;;5075807;28;20052;-71
2022/10/25 04:25:35;;;;;;;33.15;15.95;;;12.10;99.90;;;;;;5075082;28;20091;-70
2022/10/25 04:28:01;;;;;;;30.75;15.57;;;12.00;99.90;;;;;;5057713;28;20056;-71
2022/10/25 04:30:27;;;;;;;40.83;16.35;;;12.10;99.90;;;;;;5055736;28;20083;-70
2022/10/25 04:32:52;;;;;;;35.10;15.95;;;12.10;99.90;;;;;;5046823;28;20095;-71
2022/10/25 04:35:18;;;;;;;47.90;15.95;;;12.00;99.90;;;;;;5055124;28;20080;-73
2022/10/25 04:37:43;;;;;;;36.20;15.88;;;12.00;99.90;;;;;;5055191;28;20129;-71
2022/10/25 04:40:10;;;;;;;29.90;15.40;;;12.00;99.90;;;;;;5054884;28;20123;-71
2022/10/25 04:42:36;;;;;;;40.75;17.05;;;11.90;99.90;;;;;;5055119;28;20041;-70
2022/10/25 04:45:02;;;;;;;38.63;16.42;;;12.00;99.90;;;;;;5071683;28;20097;-72
2022/10/25 04:47:31;;;;;;;41.92;17.08;;;11.90;99.90;;;;;;5074876;28;20048;-71
2022/10/25 04:49:57;;;;;;;40.78;17.83;;;12.00;99.90;;;;;;5075007;28;20051;-70
2022/10/25 04:52:22;;;;;;;39.38;16.98;;;12.00;99.90;;;;;;5074951;28;20048;-70
2022/10/25 04:54:48;;;;;;;48.28;18.50;;;12.00;99.90;;;;;;5074858;28;20119;-70
2022/10/25 04:57:14;;;;;;;51.13;17.80;;;12.10;99.90;;;;;;5056688;28;20059;-71
2022/10/25 04:59:39;;;;;;;45.15;17.98;;;12.10;99.90;;;;;;5057827;28;20067;-73
2022/10/25 05:02:05;;;;;;;38.53;17.38;;;12.20;99.90;;;;;;5054900;28;20059;-71
2022/10/25 05:04:30;;;;;;;42.50;18.17;;;12.40;99.90;;;;;;5054917;28;20515;-73
2022/10/25 05:06:56;;;;;;;38.83;18.00;;;12.20;99.90;;;;;;5054653;28;20061;-71
2022/10/25 05:09:21;;;;;;;48.70;19.13;;;12.20;99.90;;;;;;5054864;28;20090;-72
2022/10/25 05:11:47;;;;;;;40.70;18.73;;;12.20;99.90;;;;;;5055135;28;20052;-71
2022/10/25 05:14:13;;;;;;;41.70;18.63;;;12.20;99.90;;;;;;5050722;28;20472;-71
2022/10/25 05:16:39;;;;;;;40.15;18.15;;;12.20;99.90;;;;;;5058588;28;20056;-71
2022/10/25 05:19:04;;;;;;;41.30;17.38;;;12.30;99.90;;;;;;5061249;28;20044;-70
2022/10/25 05:21:30;;;;;;;35.38;17.25;;;12.20;99.90;;;;;;5078366;28;20048;-72
2022/10/25 05:24:00;;;;;;;46.47;18.20;;;12.20;99.90;;;;;;5078315;28;20060;-71
2022/10/25 05:26:25;;;;;;;41.17;17.05;;;12.40;99.90;;;;;;5078031;28;20119;-70
2022/10/25 05:28:53;;;;;;;48.75;17.88;;;12.40;99.90;;;;;;5063880;28;20147;-71
2022/10/25 05:31:27;;;;;;;38.13;17.42;;;12.20;99.90;;;;;;5058142;28;20190;-70
2022/10/25 05:33:55;;;;;;;45.40;18.63;;;12.30;99.90;;;;;;5058274;28;20076;-71
2022/10/25 05:36:21;;;;;;;34.13;16.55;;;12.20;99.90;;;;;;5058415;28;20381;-71
2022/10/25 05:38:48;;;;;;;39.00;16.10;;;12.20;99.90;;;;;;5057947;28;20384;-72
2022/10/25 05:41:16;;;;;;;37.65;17.63;;;12.20;99.90;;;;;;5062610;28;20044;-72
2022/10/25 05:43:42;;;;;;;48.10;17.98;;;12.20;99.90;;;;;;5078132;28;20075;-72
2022/10/25 05:46:20;;;;;;;42.50;17.92;;;12.20;99.90;;;;;;5078096;28;20060;-73
2022/10/25 05:48:47;;;;;;;47.22;19.63;;;12.10;99.90;;;;;;5077986;28;20055;-72
2022/10/25 05:51:32;;;;;;;33.72;17.60;;;12.10;99.90;;;;;;5076795;28;20132;-70
2022/10/25 05:53:59;;;;;;;32.63;16.35;;;12.20;99.90;;;;;;5060470;28;20048;-71
2022/10/25 05:56:27;;;;;;;31.73;16.58;;;12.10;99.90;;;;;;5077729;28;20049;-71
2022/10/25 05:58:55;;;;;;;36.35;18.17;;;12.00;99.90;;;;;;5061443;28;20049;-71
2022/10/25 06:01:23;;;;;;;38.22;16.25;;;12.00;99.90;;;;;;5057519;28;20045;-72
2022/10/25 06:03:51;;;;;;;33.30;16.67;;;12.10;99.90;;;;;;5057754;28;20477;-71
2022/10/25 06:06:17;;;;;;;35.97;17.55;;;12.10;99.90;;;;;;5058032;28;20463;-70
2022/10/25 06:08:44;;;;;;;44.20;16.73;;;12.10;99.90;;;;;;5058016;28;20370;-70
2022/10/25 06:11:15;;;;;;;35.70;16.50;;;12.10;99.90;;;;;;5057958;28;20353;-73
2022/10/25 06:13:41;;;;;;;35.85;16.30;;;12.10;99.90;;;;;;5066829;28;20048;-71
2022/10/25 06:16:13;;;;;;;30.83;16.10;;;12.10;99.90;;;;;;5059777;28;20525;-71
2022/10/25 06:18:39;;;;;;;51.28;17.95;;;12.10;99.90;;;;;;5077224;28;20146;-70
2022/10/25 06:21:16;;;;;;;39.47;16.05;;;12.10;99.90;;;;;;5077243;28;20041;-71
2022/10/25 06:23:44;;;;;;;42.47;15.60;;;12.20;99.90;;;;;;5077085;28;20044;-71
2022/10/25 06:26:29;;;;;;;42.50;16.42;;;12.30;99.90;;;;;;5059461;28;20057;-71
2022/10/25 06:28:57;;;;;;;45.40;16.42;;;12.20;99.90;;;;;;5056928;28;20449;-74
2022/10/25 06:31:23;;;;;;;42.75;15.45;;;12.20;99.90;;;;;;5057210;28;20132;-72
2022/10/25 06:33:48;;;;;;;39.47;15.27;;;12.30;99.90;;;;;;5057239;28;20401;-71
2022/10/25 06:36:16;;;;;;;33.30;13.55;;;12.30;99.90;;;;;;5039504;28;20052;-71
2022/10/25 06:38:43;;;;;;;30.92;12.98;;;12.30;99.90;;;;;;5056735;28;20048;-72
2022/10/25 06:41:11;;;;;;;31.38;13.57;;;12.50;99.90;;;;;;5057000;28;20120;-71
2022/10/25 06:43:37;;;;;;;37.55;14.20;;;12.20;99.90;;;;;;5056153;28;20064;-71
2022/10/25 06:46:31;;;;;;;34.97;13.82;;;12.20;99.90;;;;;;5039049;28;20045;-73
2022/10/25 06:48:58;;;;;;;34.20;13.93;;;12.20;99.90;;;;;;5053621;28;20450;-71
2022/10/25 06:51:26;;;;;;;30.75;13.18;;;12.20;99.90;;;;;;5056693;28;20041;-73
2022/10/25 06:53:55;;;;;;;31.02;13.63;;;12.20;99.90;;;;;;5056709;28;20055;-71
2022/10/25 06:56:22;;;;;;;32.95;13.10;;;12.20;99.90;;;;;;5056123;28;20346;-73
2022/10/25 06:58:47;;;;;;;34.45;11.85;;;12.20;99.90;;;;;;5057957;28;20053;-71
2022/10/25 07:01:15;;;;;;;25.17;11.00;;;12.30;99.90;;;;;;5076584;28;20349;-71
2022/10/25 07:03:41;;;;;;;28.98;12.02;;;12.30;99.90;;;;;;5058605;28;20040;-73
2022/10/25 07:06:12;;;;;;;25.92;10.77;;;12.40;99.90;;;;;;5076546;28;20055;-71
2022/10/25 07:08:39;;;;;;;30.08;11.52;;;12.40;99.90;;;;;;5024428;28;20092;-71
2022/10/25 07:11:06;;;;;;;30.08;11.98;;;12.40;99.90;;;;;;5073354;28;20055;-72
2022/10/25 07:13:33;;;;;;;30.05;12.05;;;12.40;99.90;;;;;;5055945;28;20048;-72
2022/10/25 07:16:03;;;;;;;29.00;12.35;;;12.40;99.90;;;;;;5056304;28;20076;-71
2022/10/25 07:18:30;;;;;;;27.95;12.70;;;12.40;99.90;;;;;;5038863;28;20041;-71
2022/10/25 07:21:05;;;;;;;32.45;11.75;;;12.50;99.90;;;;;;5056157;28;20037;-71
2022/10/25 07:23:31;;;;;;;22.52;11.02;;;12.50;99.90;;;;;;5056297;28;20052;-73
2022/10/25 07:25:57;;;;;;;31.92;12.52;;;12.50;99.90;;;;;;5055881;28;20044;-71
2022/10/25 07:28:23;;;;;;;28.17;12.38;;;12.60;99.90;;;;;;5049022;28;20056;-72
2022/10/25 07:30:49;;;;;;;32.25;11.75;;;12.60;99.90;;;;;;5075449;28;20515;-72
2022/10/25 07:33:18;;;;;;;32.28;11.88;;;12.70;99.90;;;;;;5075736;28;20048;-72
2022/10/25 07:35:48;;;;;;;33.92;10.88;;;12.80;99.90;;;;;;5058737;28;20544;-72
2022/10/25 07:38:14;;;;;;;24.17;10.50;;;12.90;99.90;;;;;;5075049;28;20101;-72
2022/10/25 07:40:41;;;;;;;24.30;9.50;;;12.90;99.90;;;;;;5057807;28;20052;-73
2022/10/25 07:43:07;;;;;;;39.40;12.35;;;13.00;99.90;;;;;;5075698;28;20077;-71
2022/10/25 07:45:32;;;;;;;39.10;11.55;;;13.00;99.90;;;;;;5074841;28;20040;-71
2022/10/25 07:47:59;;;;;;;30.60;10.65;;;13.20;99.90;;;;;;5075659;28;20356;-72
2022/10/25 07:50:24;;;;;;;31.02;10.27;;;13.10;99.90;;;;;;5075217;28;20044;-72
2022/10/25 07:52:50;;;;;;;30.63;10.60;;;13.20;99.90;;;;;;5075667;28;20041;-71
2022/10/25 07:55:15;;;;;;;28.90;11.73;;;13.20;99.90;;;;;;5075613;28;20098;-73
2022/10/25 07:57:41;;;;;;;26.90;10.43;;;13.20;99.90;;;;;;5075228;28;20045;-70
2022/10/25 08:00:09;;;;;;;28.13;10.50;;;13.30;99.90;;;;;;5058785;28;20045;-70
2022/10/25 08:02:34;;;;;;;27.13;11.07;;;13.30;99.90;;;;;;5055249;28;20091;-71
2022/10/25 08:05:00;;;;;;;39.45;10.23;;;13.30;99.90;;;;;;5055505;28;20040;-72
2022/10/25 08:07:26;;;;;;;22.20;10.15;;;13.40;99.90;;;;;;5054823;28;20049;-72
2022/10/25 08:09:52;;;;;;;46.67;10.23;;;13.40;99.90;;;;;;5055512;28;20041;-73
2022/10/25 08:12:18;;;;;;;25.83;10.23;;;13.40;99.90;;;;;;5055115;28;20049;-72
2022/10/25 08:14:43;;;;;;;27.45;10.23;;;13.50;99.90;;;;;;5064944;28;20389;-72
2022/10/25 08:17:09;;;;;;;31.02;10.30;;;13.50;99.90;;;;;;5075271;28;20127;-71
2022/10/25 08:19:34;;;;;;;29.13;11.20;;;13.60;99.90;;;;;;5075418;28;20043;-73
2022/10/25 08:22:00;;;;;;;27.27;10.65;;;13.70;99.90;;;;;;5040411;28;20598;-73
2022/10/25 08:24:26;;;;;;;24.83;9.77;;;13.60;99.90;;;;;;5075307;28;20048;-72
2022/10/25 08:26:51;;;;;;;22.98;9.68;;;13.70;99.90;;;;;;5074918;28;20346;-73
2022/10/25 08:29:17;;;;;;;28.42;10.85;;;13.70;99.90;;;;;;5061137;28;20067;-71
2022/10/25 08:31:43;;;;;;;28.35;11.98;;;13.80;99.90;;;;;;5054904;28;20037;-71
2022/10/25 08:34:09;;;;;;;28.05;10.23;;;13.80;99.90;;;;;;5055041;28;20059;-73
2022/10/25 08:36:35;;;;;;;35.45;10.93;;;13.90;99.90;;;;;;5055110;28;20049;-71
2022/10/25 08:39:00;;;;;;;24.40;9.50;;;13.90;99.90;;;;;;5037646;28;20434;-71
2022/10/25 08:41:45;;;;;;;29.85;10.27;;;13.90;99.90;;;;;;5054903;28;20112;-71
2022/10/25 08:44:14;;;;;;;29.17;11.30;;;14.00;99.90;;;;;;5069342;28;20054;-71
2022/10/25 08:46:59;;;;;;;25.55;9.95;;;13.90;99.90;;;;;;5075082;28;20060;-73
2022/10/25 08:49:37;;;;;;;19.80;9.55;;;14.00;99.90;;;;;;5057439;28;20335;-71
2022/10/25 08:52:09;;;;;;;31.55;10.00;;;14.00;99.90;;;;;;5078958;28;20044;-74
2022/10/25 08:54:38;;;;;;;27.02;9.50;;;14.10;99.90;;;;;;5078950;28;20052;-72
2022/10/25 08:57:16;;;;;;;25.60;10.02;;;14.20;99.90;;;;;;5074138;28;20413;-71
2022/10/25 08:59:47;;;;;;;25.10;10.05;;;14.20;99.90;;;;;;5040839;28;20056;-73
2022/10/25 09:02:19;;;;;;;22.08;9.30;;;14.30;99.90;;;;;;5058785;28;20057;-70
2022/10/25 09:04:45;;;;;;;25.73;10.32;;;14.40;99.90;;;;;;5058864;28;20124;-72
2022/10/25 09:07:32;;;;;;;26.73;9.88;;;14.50;99.90;;;;;;5058649;28;20128;-72
2022/10/25 09:10:16;;;;;;;24.90;9.43;;;14.60;99.90;;;;;;5058838;28;20053;-71
2022/10/25 09:13:04;;;;;;;21.83;9.45;;;14.70;99.90;;;;;;5068601;28;20044;-72
2022/10/25 09:15:55;;;;;;;25.60;9.73;;;14.80;99.90;;;;;;5078392;28;20114;-72
2022/10/25 09:18:29;;;;;;;31.65;9.95;;;14.70;99.90;;;;;;5078591;28;20372;-71
2022/10/25 09:20:57;;;;;;;30.42;9.85;;;14.70;99.90;;;;;;5078993;28;20137;-71
2022/10/25 09:23:32;;;;;;;22.30;8.80;;;14.60;99.90;;;;;;5078303;28;20460;-72
2022/10/25 09:26:04;;;;;;;28.45;9.05;;;14.60;99.90;;;;;;5078417;28;20052;-72
2022/10/25 09:29:04;;;;;;;21.58;7.85;;;14.70;99.90;;;;;;5058038;28;20145;-71
2022/10/25 09:31:36;;;;;;;19.10;7.93;;;14.70;99.90;;;;;;5038107;28;20473;-72
2022/10/25 09:34:07;;;;;;;18.55;7.63;;;14.90;99.90;;;;;;5058082;28;20060;-72
2022/10/25 09:36:42;;;;;;;18.48;6.97;;;14.90;99.90;;;;;;5040428;28;20052;-72
2022/10/25 09:39:19;;;;;;;21.75;7.55;;;15.10;99.90;;;;;;5057665;28;20330;-71
2022/10/25 09:41:54;;;;;;;19.35;7.53;;;15.00;99.90;;;;;;5065962;28;20040;-73
2022/10/25 09:44:39;;;;;;;16.60;6.63;;;15.10;99.90;;;;;;5060601;28;20094;-72
2022/10/25 09:47:19;;;;;;;16.65;6.80;;;15.20;99.90;;;;;;5060117;28;20524;-71
2022/10/25 09:49:45;;;;;;;16.08;6.05;;;15.20;99.90;;;;;;5077535;28;20067;-73
2022/10/25 09:52:37;;;;;;;29.73;6.95;;;15.20;99.90;;;;;;5077765;28;20044;-72
2022/10/25 09:55:14;;;;;;;16.25;5.53;;;15.30;99.90;;;;;;5060862;28;20091;-74
2022/10/25 09:57:41;;;;;;;17.92;6.25;;;15.30;99.90;;;;;;5059205;28;20112;-73
2022/10/25 10:00:12;;;;;;;25.15;5.85;;;15.20;99.90;;;;;;5062880;28;20044;-72
2022/10/25 10:02:38;;;;;;;17.73;5.65;;;15.40;99.90;;;;;;5058917;28;20056;-72
2022/10/25 10:05:04;;;;;;;31.35;6.30;;;15.40;99.90;;;;;;5077235;28;20040;-72
2022/10/25 10:07:35;;;;;;;16.80;5.65;;;15.40;99.90;;;;;;5077804;28;20055;-72
2022/10/25 10:10:07;;;;;;;18.73;6.15;;;15.40;99.90;;;;;;5059791;28;20052;-73
2022/10/25 10:12:49;;;;;;;18.50;5.38;;;15.40;99.90;;;;;;5077112;28;20056;-73
2022/10/25 10:15:21;;;;;;;19.58;5.50;;;15.40;99.90;;;;;;5077535;28;20119;-72
2022/10/25 10:17:59;;;;;;;19.50;6.07;;;15.40;99.90;;;;;;5058938;28;20049;-72
2022/10/25 10:20:25;;;;;;;19.67;5.40;;;15.30;99.90;;;;;;5039799;28;20052;-71
2022/10/25 10:22:52;;;;;;;18.13;5.18;;;15.30;99.90;;;;;;5057024;28;20050;-72
2022/10/25 10:25:25;;;;;;;21.90;5.03;;;15.30;99.90;;;;;;5057693;28;20365;-71
2022/10/25 10:27:54;;;;;;;20.70;5.35;;;15.30;99.90;;;;;;5056904;28;20049;-71
2022/10/25 10:30:27;;;;;;;14.98;4.88;;;15.50;99.90;;;;;;5057024;28;20094;-73
2022/10/25 10:33:00;;;;;;;20.67;4.88;;;15.60;99.90;;;;;;5057137;28;20048;-72
2022/10/25 10:35:32;;;;;;;13.85;4.60;;;15.60;99.90;;;;;;5059280;28;20045;-72
2022/10/25 10:38:19;;;;;;;14.52;5.20;;;15.70;99.90;;;;;;5057267;28;20330;-72
2022/10/25 10:40:45;;;;;;;12.50;3.97;;;15.60;99.90;;;;;;5057066;28;20157;-71
2022/10/25 10:43:37;;;;;;;13.43;5.18;;;15.50;99.90;;;;;;5056898;28;20084;-73
2022/10/25 10:46:08;;;;;;;18.42;5.10;;;15.40;99.90;;;;;;5051932;28;20378;-72
2022/10/25 10:48:40;;;;;;;22.38;5.38;;;15.50;99.90;;;;;;5056582;28;20377;-74
2022/10/25 10:51:05;;;;;;;14.20;4.05;;;15.60;99.90;;;;;;5061523;28;20036;-73
2022/10/25 10:53:31;;;;;;;16.45;4.32;;;15.60;99.90;;;;;;5076796;28;20047;-72
2022/10/25 10:56:05;;;;;;;21.27;4.50;;;15.70;99.90;;;;;;5076606;28;20044;-71
2022/10/25 10:58:34;;;;;;;14.80;4.32;;;15.60;99.90;;;;;;5076256;28;20061;-72
2022/10/25 11:01:01;;;;;;;14.93;3.95;;;15.60;99.90;;;;;;5076361;28;20041;-71
2022/10/25 11:03:36;;;;;;;13.82;3.97;;;15.60;99.90;;;;;;5076274;28;20036;-72
2022/10/25 11:06:05;;;;;;;16.85;4.78;;;15.70;99.90;;;;;;5044404;28;20144;-72
2022/10/25 11:08:30;;;;;;;12.93;3.85;;;15.80;99.90;;;;;;5056543;28;20052;-71
2022/10/25 11:11:25;;;;;;;11.88;4.35;;;15.80;99.90;;;;;;5056518;28;20139;-72
2022/10/25 11:13:56;;;;;;;14.38;3.42;;;16.00;99.90;;;;;;5034258;28;20052;-71
2022/10/25 11:16:51;;;;;;;17.10;4.30;;;16.00;99.90;;;;;;5056394;28;20098;-72
2022/10/25 11:19:31;;;;;;;32.78;4.40;;;16.20;99.90;;;;;;5022288;28;20044;-70
2022/10/25 11:22:05;;;;;;;19.48;3.97;;;16.20;99.90;;;;;;5068614;28;20040;-72
2022/10/25 11:24:54;;;;;;;14.20;3.80;;;16.20;99.90;;;;;;5076082;28;20542;-71
2022/10/25 11:27:56;;;;;;;26.17;5.05;;;16.20;99.90;;;;;;5075723;28;20095;-73
2022/10/25 11:30:24;;;;;;;12.50;3.85;;;16.30;99.90;;;;;;5075854;28;20040;-73
2022/10/25 11:33:16;;;;;;;14.60;3.80;;;16.30;99.90;;;;;;5076059;28;20059;-71
2022/10/25 11:36:02;;;;;;;14.27;3.72;;;16.20;99.90;;;;;;5059993;28;20342;-73
2022/10/25 11:38:54;;;;;;;11.13;3.60;;;16.20;99.90;;;;;;5055509;28;20095;-73
2022/10/25 11:41:41;;;;;;;11.15;3.33;;;16.20;99.90;;;;;;5055860;28;20036;-71
2022/10/25 11:44:19;;;;;;;14.50;3.63;;;16.30;99.90;;;;;;5055571;28;20446;-73
2022/10/25 11:47:10;;;;;;;13.32;3.88;;;16.30;99.90;;;;;;5055558;28;20458;-73
2022/10/25 11:49:42;;;;;;;17.20;3.42;;;16.30;99.90;;;;;;5056596;28;20041;-72
2022/10/25 11:52:39;;;;;;;13.80;4.25;;;16.50;99.90;;;;;;5076001;28;20490;-71
2022/10/25 11:55:31;;;;;;;13.13;3.30;;;16.60;99.90;;;;;;4988591;28;20369;-72
2022/10/25 11:58:40;;;;;;;11.70;3.10;;;16.80;99.90;;;;;;5075389;28;20053;-71
2022/10/25 12:01:18;;;;;;;15.80;3.65;;;17.00;99.90;;;;;;5020027;28;20052;-72
2022/10/25 12:04:13;;;;;;;17.27;3.92;;;17.20;99.90;;;;;;5054260;28;20051;-72
2022/10/25 12:06:49;;;;;;;9.30;3.00;;;17.30;99.90;;;;;;5037613;28;20381;-73
2022/10/25 12:09:30;;;;;;;18.58;3.13;;;17.40;99.90;;;;;;5055382;28;20063;-72
2022/10/25 12:12:15;;;;;;;12.15;2.33;;;17.30;99.90;;;;;;5055019;28;20052;-74
2022/10/25 12:14:46;;;;;;;10.95;3.00;;;17.20;99.90;;;;;;5055070;28;20041;-73
2022/10/25 12:17:23;;;;;;;13.75;2.50;;;16.90;99.90;;;;;;5055089;28;20048;-72
2022/10/25 12:19:52;;;;;;;7.57;2.55;;;16.70;99.90;;;;;;5014328;28;20060;-73
2022/10/25 12:22:27;;;;;;;9.65;3.25;;;16.60;99.90;;;;;;5075425;28;20408;-75
2022/10/25 12:24:58;;;;;;;12.57;2.78;;;16.50;99.90;;;;;;5075006;28;20057;-72
2022/10/25 12:27:26;;;;;;;12.65;2.55;;;16.60;99.90;;;;;;5075135;28;20353;-72
2022/10/25 12:30:00;;;;;;;8.55;2.40;;;16.60;99.90;;;;;;5057640;28;20048;-72
2022/10/25 12:32:31;;;;;;;12.63;2.60;;;16.50;99.90;;;;;;5057012;28;20110;-72
2022/10/25 12:35:00;;;;;;;13.00;2.78;;;16.30;99.90;;;;;;5039637;28;20124;-72
2022/10/25 12:37:38;;;;;;;10.38;2.80;;;16.20;99.90;;;;;;5037479;28;20117;-72
2022/10/25 12:40:06;;;;;;;12.48;2.83;;;16.10;99.90;;;;;;5054658;28;20488;-73
2022/10/25 12:42:45;;;;;;;11.10;3.03;;;16.00;99.90;;;;;;5054720;28;20135;-73
2022/10/25 12:45:26;;;;;;;13.43;3.30;;;15.90;99.90;;;;;;5054668;28;20060;-72
2022/10/25 12:48:15;;;;;;;18.25;3.85;;;15.90;99.90;;;;;;5037658;28;20399;-72
2022/10/25 12:51:18;;;;;;;11.10;3.20;;;15.90;99.90;;;;;;5073305;28;20528;-71
2022/10/25 12:54:14;;;;;;;11.20;3.47;;;16.10;99.90;;;;;;5074691;28;20044;-73